sensor_id;sensor_type;location;lat;lon;timestamp;P1;durP1;ratioP1;P2;durP2;ratioP2
74636;SDS011;63141;54.616;39.754;2022-09-02T00:00:14;1.38;;;0.80;;
74636;SDS011;63141;54.616;39.754;2022-09-02T00:03:22;0.90;;;0.57;;
74636;SDS011;63141;54.616;39.754;2022-09-02T00:06:24;0.98;;;0.70;;
74636;SDS011;63141;54.616;39.754;2022-09-02T00:09:26;0.60;;;0.60;;
74636;SDS011;63141;54.616;39.754;2022-09-02T00:12:28;0.85;;;0.70;;
74636;SDS011;63141;54.616;39.754;2022-09-02T00:15:29;1.30;;;0.60;;
74636;SDS011;63141;54.616;39.754;2022-09-02T00:18:31;0.88;;;0.70;;
74636;SDS011;63141;54.616;39.754;2022-09-02T00:21:34;1.15;;;0.60;;
74636;SDS011;63141;54.616;39.754;2022-09-02T00:24:35;1.20;;;0.75;;
74636;SDS011;63141;54.616;39.754;2022-09-02T00:27:37;1.27;;;0.70;;
74636;SDS011;63141;54.616;39.754;2022-09-02T00:30:39;1.10;;;0.75;;
74636;SDS011;63141;54.616;39.754;2022-09-02T00:33:41;0.60;;;0.50;;
74636;SDS011;63141;54.616;39.754;2022-09-02T00:36:43;0.85;;;0.85;;
74636;SDS011;63141;54.616;39.754;2022-09-02T00:39:45;1.50;;;0.73;;
74636;SDS011;63141;54.616;39.754;2022-09-02T00:42:46;0.90;;;0.77;;
74636;SDS011;63141;54.616;39.754;2022-09-02T00:45:47;1.92;;;0.70;;
74636;SDS011;63141;54.616;39.754;2022-09-02T00:48:57;0.85;;;0.70;;
74636;SDS011;63141;54.616;39.754;2022-09-02T00:55:17;0.80;;;0.60;;
74636;SDS011;63141;54.616;39.754;2022-09-02T00:58:23;1.38;;;0.70;;
74636;SDS011;63141;54.616;39.754;2022-09-02T01:01:27;2.13;;;0.80;;
74636;SDS011;63141;54.616;39.754;2022-09-02T01:04:33;0.60;;;0.50;;
74636;SDS011;63141;54.616;39.754;2022-09-02T01:07:36;0.60;;;0.50;;
74636;SDS011;63141;54.616;39.754;2022-09-02T01:10:40;1.40;;;0.68;;
74636;SDS011;63141;54.616;39.754;2022-09-02T01:13:44;1.88;;;0.73;;
74636;SDS011;63141;54.616;39.754;2022-09-02T01:16:47;1.45;;;0.82;;
74636;SDS011;63141;54.616;39.754;2022-09-02T01:23:01;0.80;;;0.60;;
74636;SDS011;63141;54.616;39.754;2022-09-02T01:26:03;1.38;;;0.55;;
74636;SDS011;63141;54.616;39.754;2022-09-02T01:29:05;1.33;;;0.70;;
74636;SDS011;63141;54.616;39.754;2022-09-02T01:32:09;1.30;;;0.57;;
74636;SDS011;63141;54.616;39.754;2022-09-02T01:35:11;1.77;;;0.52;;
74636;SDS011;63141;54.616;39.754;2022-09-02T01:38:16;1.13;;;0.60;;
74636;SDS011;63141;54.616;39.754;2022-09-02T01:41:19;1.52;;;0.70;;
74636;SDS011;63141;54.616;39.754;2022-09-02T01:44:20;0.93;;;0.50;;
74636;SDS011;63141;54.616;39.754;2022-09-02T01:47:24;1.05;;;0.70;;
74636;SDS011;63141;54.616;39.754;2022-09-02T01:50:27;2.85;;;0.68;;
74636;SDS011;63141;54.616;39.754;2022-09-02T01:53:29;0.85;;;0.60;;
74636;SDS011;63141;54.616;39.754;2022-09-02T01:56:32;2.15;;;0.93;;
74636;SDS011;63141;54.616;39.754;2022-09-02T01:59:35;2.42;;;0.70;;
74636;SDS011;63141;54.616;39.754;2022-09-02T02:02:39;1.40;;;0.60;;
74636;SDS011;63141;54.616;39.754;2022-09-02T02:05:41;1.30;;;0.60;;
74636;SDS011;63141;54.616;39.754;2022-09-02T02:08:48;0.98;;;0.60;;
74636;SDS011;63141;54.616;39.754;2022-09-02T02:11:51;1.35;;;0.60;;
74636;SDS011;63141;54.616;39.754;2022-09-02T02:14:53;1.17;;;0.60;;
74636;SDS011;63141;54.616;39.754;2022-09-02T02:17:55;0.75;;;0.50;;
74636;SDS011;63141;54.616;39.754;2022-09-02T02:20:56;2.05;;;0.50;;
74636;SDS011;63141;54.616;39.754;2022-09-02T02:23:58;1.25;;;0.60;;
74636;SDS011;63141;54.616;39.754;2022-09-02T02:27:03;0.35;;;0.35;;
74636;SDS011;63141;54.616;39.754;2022-09-02T02:30:05;0.65;;;0.55;;
74636;SDS011;63141;54.616;39.754;2022-09-02T02:33:07;0.70;;;0.60;;
74636;SDS011;63141;54.616;39.754;2022-09-02T02:36:09;0.95;;;0.60;;
74636;SDS011;63141;54.616;39.754;2022-09-02T02:39:11;0.80;;;0.60;;
74636;SDS011;63141;54.616;39.754;2022-09-02T02:42:13;1.38;;;0.60;;
74636;SDS011;63141;54.616;39.754;2022-09-02T02:45:16;0.68;;;0.60;;
74636;SDS011;63141;54.616;39.754;2022-09-02T02:48:18;0.82;;;0.55;;
74636;SDS011;63141;54.616;39.754;2022-09-02T02:51:19;0.50;;;0.50;;
74636;SDS011;63141;54.616;39.754;2022-09-02T02:54:23;0.88;;;0.50;;
74636;SDS011;63141;54.616;39.754;2022-09-02T02:57:25;0.60;;;0.45;;
74636;SDS011;63141;54.616;39.754;2022-09-02T03:00:28;0.68;;;0.60;;
74636;SDS011;63141;54.616;39.754;2022-09-02T03:03:37;1.17;;;0.50;;
74636;SDS011;63141;54.616;39.754;2022-09-02T03:06:38;0.57;;;0.57;;
74636;SDS011;63141;54.616;39.754;2022-09-02T03:09:40;0.70;;;0.50;;
74636;SDS011;63141;54.616;39.754;2022-09-02T03:12:43;1.15;;;0.60;;
74636;SDS011;63141;54.616;39.754;2022-09-02T03:15:48;0.65;;;0.52;;
74636;SDS011;63141;54.616;39.754;2022-09-02T03:18:50;0.77;;;0.50;;
74636;SDS011;63141;54.616;39.754;2022-09-02T03:21:51;0.47;;;0.40;;
74636;SDS011;63141;54.616;39.754;2022-09-02T03:24:54;0.82;;;0.68;;
74636;SDS011;63141;54.616;39.754;2022-09-02T03:27:55;1.02;;;0.68;;
74636;SDS011;63141;54.616;39.754;2022-09-02T03:30:57;1.08;;;0.50;;
74636;SDS011;63141;54.616;39.754;2022-09-02T03:34:00;0.60;;;0.55;;
74636;SDS011;63141;54.616;39.754;2022-09-02T03:37:02;0.50;;;0.40;;
74636;SDS011;63141;54.616;39.754;2022-09-02T03:40:05;0.45;;;0.40;;
74636;SDS011;63141;54.616;39.754;2022-09-02T03:43:10;1.55;;;0.63;;
74636;SDS011;63141;54.616;39.754;2022-09-02T03:46:12;0.98;;;0.63;;
74636;SDS011;63141;54.616;39.754;2022-09-02T03:49:15;1.13;;;0.50;;
74636;SDS011;63141;54.616;39.754;2022-09-02T03:52:16;0.60;;;0.47;;
74636;SDS011;63141;54.616;39.754;2022-09-02T03:55:18;0.73;;;0.55;;
74636;SDS011;63141;54.616;39.754;2022-09-02T03:58:19;0.60;;;0.40;;
74636;SDS011;63141;54.616;39.754;2022-09-02T04:01:24;0.45;;;0.35;;
74636;SDS011;63141;54.616;39.754;2022-09-02T04:04:32;0.47;;;0.43;;
74636;SDS011;63141;54.616;39.754;2022-09-02T04:07:33;1.17;;;0.43;;
74636;SDS011;63141;54.616;39.754;2022-09-02T04:10:36;0.95;;;0.60;;
74636;SDS011;63141;54.616;39.754;2022-09-02T04:13:39;0.68;;;0.50;;
74636;SDS011;63141;54.616;39.754;2022-09-02T04:16:40;0.57;;;0.50;;
74636;SDS011;63141;54.616;39.754;2022-09-02T04:19:43;0.60;;;0.38;;
74636;SDS011;63141;54.616;39.754;2022-09-02T04:22:45;0.82;;;0.50;;
74636;SDS011;63141;54.616;39.754;2022-09-02T04:25:46;0.60;;;0.50;;
74636;SDS011;63141;54.616;39.754;2022-09-02T04:28:50;0.65;;;0.50;;
74636;SDS011;63141;54.616;39.754;2022-09-02T04:31:55;0.32;;;0.30;;
74636;SDS011;63141;54.616;39.754;2022-09-02T04:34:56;0.47;;;0.40;;
74636;SDS011;63141;54.616;39.754;2022-09-02T04:37:58;0.50;;;0.50;;
74636;SDS011;63141;54.616;39.754;2022-09-02T04:41:00;0.70;;;0.57;;
74636;SDS011;63141;54.616;39.754;2022-09-02T04:44:06;2.20;;;0.50;;
74636;SDS011;63141;54.616;39.754;2022-09-02T04:47:12;0.65;;;0.40;;
74636;SDS011;63141;54.616;39.754;2022-09-02T04:50:14;0.57;;;0.47;;
74636;SDS011;63141;54.616;39.754;2022-09-02T04:53:31;1.65;;;0.50;;
74636;SDS011;63141;54.616;39.754;2022-09-02T04:56:33;2.25;;;0.57;;
74636;SDS011;63141;54.616;39.754;2022-09-02T04:59:37;0.70;;;0.40;;
74636;SDS011;63141;54.616;39.754;2022-09-02T05:02:43;1.25;;;0.38;;
74636;SDS011;63141;54.616;39.754;2022-09-02T05:06:00;1.33;;;0.57;;
74636;SDS011;63141;54.616;39.754;2022-09-02T05:09:04;0.60;;;0.40;;
74636;SDS011;63141;54.616;39.754;2022-09-02T05:12:10;0.40;;;0.40;;
74636;SDS011;63141;54.616;39.754;2022-09-02T05:15:21;0.35;;;0.35;;
74636;SDS011;63141;54.616;39.754;2022-09-02T05:18:22;0.50;;;0.25;;
74636;SDS011;63141;54.616;39.754;2022-09-02T05:21:24;0.60;;;0.60;;
74636;SDS011;63141;54.616;39.754;2022-09-02T05:24:26;0.55;;;0.40;;
74636;SDS011;63141;54.616;39.754;2022-09-02T05:27:31;1.65;;;0.40;;
74636;SDS011;63141;54.616;39.754;2022-09-02T05:30:34;0.60;;;0.35;;
74636;SDS011;63141;54.616;39.754;2022-09-02T05:33:38;0.68;;;0.40;;
74636;SDS011;63141;54.616;39.754;2022-09-02T05:36:41;1.48;;;0.30;;
74636;SDS011;63141;54.616;39.754;2022-09-02T05:39:43;0.47;;;0.40;;
74636;SDS011;63141;54.616;39.754;2022-09-02T05:42:45;0.30;;;0.30;;
74636;SDS011;63141;54.616;39.754;2022-09-02T05:45:48;0.38;;;0.38;;
74636;SDS011;63141;54.616;39.754;2022-09-02T05:48:49;0.50;;;0.40;;
74636;SDS011;63141;54.616;39.754;2022-09-02T05:52:15;0.60;;;0.33;;
74636;SDS011;63141;54.616;39.754;2022-09-02T05:55:21;0.50;;;0.40;;
74636;SDS011;63141;54.616;39.754;2022-09-02T05:58:23;1.20;;;0.68;;
74636;SDS011;63141;54.616;39.754;2022-09-02T06:01:26;0.30;;;0.30;;
74636;SDS011;63141;54.616;39.754;2022-09-02T06:04:41;1.10;;;0.40;;
74636;SDS011;63141;54.616;39.754;2022-09-02T06:07:45;1.13;;;0.43;;
74636;SDS011;63141;54.616;39.754;2022-09-02T06:10:47;0.50;;;0.30;;
74636;SDS011;63141;54.616;39.754;2022-09-02T06:13:53;0.90;;;0.40;;
74636;SDS011;63141;54.616;39.754;2022-09-02T06:16:57;0.40;;;0.40;;
74636;SDS011;63141;54.616;39.754;2022-09-02T06:20:06;0.55;;;0.40;;
74636;SDS011;63141;54.616;39.754;2022-09-02T06:23:08;1.13;;;0.40;;
74636;SDS011;63141;54.616;39.754;2022-09-02T06:26:13;0.55;;;0.40;;
74636;SDS011;63141;54.616;39.754;2022-09-02T06:29:16;0.30;;;0.30;;
74636;SDS011;63141;54.616;39.754;2022-09-02T06:32:17;0.40;;;0.40;;
74636;SDS011;63141;54.616;39.754;2022-09-02T06:35:19;0.50;;;0.30;;
74636;SDS011;63141;54.616;39.754;2022-09-02T06:38:20;0.80;;;0.40;;
74636;SDS011;63141;54.616;39.754;2022-09-02T06:41:24;0.40;;;0.40;;
74636;SDS011;63141;54.616;39.754;2022-09-02T06:44:29;0.40;;;0.40;;
74636;SDS011;63141;54.616;39.754;2022-09-02T06:47:31;0.28;;;0.28;;
74636;SDS011;63141;54.616;39.754;2022-09-02T06:50:36;0.93;;;0.40;;
74636;SDS011;63141;54.616;39.754;2022-09-02T06:53:39;0.57;;;0.40;;
74636;SDS011;63141;54.616;39.754;2022-09-02T06:56:41;0.98;;;0.40;;
74636;SDS011;63141;54.616;39.754;2022-09-02T06:59:44;0.65;;;0.40;;
74636;SDS011;63141;54.616;39.754;2022-09-02T07:02:47;0.30;;;0.30;;
74636;SDS011;63141;54.616;39.754;2022-09-02T07:06:15;0.55;;;0.40;;
74636;SDS011;63141;54.616;39.754;2022-09-02T07:09:21;0.30;;;0.30;;
74636;SDS011;63141;54.616;39.754;2022-09-02T07:12:25;0.40;;;0.30;;
74636;SDS011;63141;54.616;39.754;2022-09-02T07:15:32;0.63;;;0.40;;
74636;SDS011;63141;54.616;39.754;2022-09-02T07:18:35;0.82;;;0.40;;
74636;SDS011;63141;54.616;39.754;2022-09-02T07:21:38;0.52;;;0.38;;
74636;SDS011;63141;54.616;39.754;2022-09-02T07:24:42;1.65;;;0.32;;
74636;SDS011;63141;54.616;39.754;2022-09-02T07:27:44;0.38;;;0.20;;
74636;SDS011;63141;54.616;39.754;2022-09-02T07:30:46;0.50;;;0.40;;
74636;SDS011;63141;54.616;39.754;2022-09-02T07:33:50;0.73;;;0.30;;
74636;SDS011;63141;54.616;39.754;2022-09-02T07:36:51;0.30;;;0.30;;
74636;SDS011;63141;54.616;39.754;2022-09-02T07:39:54;0.43;;;0.35;;
74636;SDS011;63141;54.616;39.754;2022-09-02T07:42:56;0.40;;;0.30;;
74636;SDS011;63141;54.616;39.754;2022-09-02T07:45:58;0.28;;;0.20;;
74636;SDS011;63141;54.616;39.754;2022-09-02T07:49:03;0.73;;;0.50;;
74636;SDS011;63141;54.616;39.754;2022-09-02T07:52:07;0.22;;;0.22;;
74636;SDS011;63141;54.616;39.754;2022-09-02T07:55:08;1.08;;;0.50;;
74636;SDS011;63141;54.616;39.754;2022-09-02T07:58:11;0.40;;;0.30;;
74636;SDS011;63141;54.616;39.754;2022-09-02T08:01:13;0.60;;;0.35;;
74636;SDS011;63141;54.616;39.754;2022-09-02T08:04:20;0.25;;;0.25;;
74636;SDS011;63141;54.616;39.754;2022-09-02T08:07:24;0.50;;;0.20;;
74636;SDS011;63141;54.616;39.754;2022-09-02T08:10:27;1.08;;;0.40;;
74636;SDS011;63141;54.616;39.754;2022-09-02T08:13:29;0.30;;;0.30;;
74636;SDS011;63141;54.616;39.754;2022-09-02T08:16:30;0.30;;;0.30;;
74636;SDS011;63141;54.616;39.754;2022-09-02T08:19:32;0.25;;;0.20;;
74636;SDS011;63141;54.616;39.754;2022-09-02T08:22:34;0.88;;;0.40;;
74636;SDS011;63141;54.616;39.754;2022-09-02T08:25:36;0.50;;;0.50;;
74636;SDS011;63141;54.616;39.754;2022-09-02T08:28:37;0.35;;;0.30;;
74636;SDS011;63141;54.616;39.754;2022-09-02T08:31:39;0.25;;;0.25;;
74636;SDS011;63141;54.616;39.754;2022-09-02T08:34:40;0.20;;;0.20;;
74636;SDS011;63141;54.616;39.754;2022-09-02T08:37:42;0.95;;;0.40;;
74636;SDS011;63141;54.616;39.754;2022-09-02T08:40:43;1.35;;;0.35;;
74636;SDS011;63141;54.616;39.754;2022-09-02T08:43:45;0.47;;;0.40;;
74636;SDS011;63141;54.616;39.754;2022-09-02T08:46:48;0.35;;;0.30;;
74636;SDS011;63141;54.616;39.754;2022-09-02T08:49:58;0.30;;;0.30;;
74636;SDS011;63141;54.616;39.754;2022-09-02T08:53:06;0.20;;;0.20;;
74636;SDS011;63141;54.616;39.754;2022-09-02T08:56:16;0.30;;;0.30;;
74636;SDS011;63141;54.616;39.754;2022-09-02T08:59:22;0.20;;;0.10;;
74636;SDS011;63141;54.616;39.754;2022-09-02T09:02:49;0.20;;;0.20;;
74636;SDS011;63141;54.616;39.754;2022-09-02T09:06:07;0.57;;;0.30;;
74636;SDS011;63141;54.616;39.754;2022-09-02T09:21:57;0.47;;;0.40;;
74636;SDS011;63141;54.616;39.754;2022-09-02T09:25:07;0.82;;;0.40;;
74636;SDS011;63141;54.616;39.754;2022-09-02T09:28:12;0.57;;;0.43;;
74636;SDS011;63141;54.616;39.754;2022-09-02T09:31:17;0.40;;;0.30;;
74636;SDS011;63141;54.616;39.754;2022-09-02T09:34:21;0.75;;;0.32;;
74636;SDS011;63141;54.616;39.754;2022-09-02T09:37:26;3.72;;;0.50;;
74636;SDS011;63141;54.616;39.754;2022-09-02T09:40:29;0.73;;;0.20;;
74636;SDS011;63141;54.616;39.754;2022-09-02T09:43:32;0.60;;;0.40;;
74636;SDS011;63141;54.616;39.754;2022-09-02T09:46:33;0.63;;;0.47;;
74636;SDS011;63141;54.616;39.754;2022-09-02T09:49:35;0.60;;;0.30;;
74636;SDS011;63141;54.616;39.754;2022-09-02T09:52:37;0.30;;;0.30;;
74636;SDS011;63141;54.616;39.754;2022-09-02T09:58:51;2.63;;;0.30;;
74636;SDS011;63141;54.616;39.754;2022-09-02T10:01:53;0.82;;;0.30;;
74636;SDS011;63141;54.616;39.754;2022-09-02T10:05:10;0.65;;;0.38;;
74636;SDS011;63141;54.616;39.754;2022-09-02T10:08:22;1.45;;;0.30;;
74636;SDS011;63141;54.616;39.754;2022-09-02T10:11:29;1.00;;;0.40;;
74636;SDS011;63141;54.616;39.754;2022-09-02T10:14:43;0.75;;;0.47;;
74636;SDS011;63141;54.616;39.754;2022-09-02T10:31:31;4.40;;;1.75;;
74636;SDS011;63141;54.616;39.754;2022-09-02T10:38:41;4.43;;;2.25;;
74636;SDS011;63141;54.616;39.754;2022-09-02T10:41:44;3.85;;;2.28;;
74636;SDS011;63141;54.616;39.754;2022-09-02T10:44:51;4.20;;;1.90;;
74636;SDS011;63141;54.616;39.754;2022-09-02T10:51:15;4.07;;;1.55;;
74636;SDS011;63141;54.616;39.754;2022-09-02T10:58:02;1.42;;;1.10;;
74636;SDS011;63141;54.616;39.754;2022-09-02T11:01:11;5.05;;;1.40;;
74636;SDS011;63141;54.616;39.754;2022-09-02T11:07:51;4.75;;;1.50;;
74636;SDS011;63141;54.616;39.754;2022-09-02T11:11:09;5.03;;;1.17;;
74636;SDS011;63141;54.616;39.754;2022-09-02T11:14:26;3.65;;;1.10;;
74636;SDS011;63141;54.616;39.754;2022-09-02T11:24:50;6.65;;;1.10;;
74636;SDS011;63141;54.616;39.754;2022-09-02T11:34:46;2.63;;;0.90;;
74636;SDS011;63141;54.616;39.754;2022-09-02T11:44:05;2.00;;;0.98;;
74636;SDS011;63141;54.616;39.754;2022-09-02T11:50:49;1.98;;;0.73;;
74636;SDS011;63141;54.616;39.754;2022-09-02T11:53:57;2.15;;;0.50;;
74636;SDS011;63141;54.616;39.754;2022-09-02T11:57:03;0.73;;;0.60;;
74636;SDS011;63141;54.616;39.754;2022-09-02T12:00:07;1.63;;;0.60;;
74636;SDS011;63141;54.616;39.754;2022-09-02T12:03:22;1.42;;;0.60;;
74636;SDS011;63141;54.616;39.754;2022-09-02T12:06:26;0.90;;;0.73;;
74636;SDS011;63141;54.616;39.754;2022-09-02T12:19:16;0.95;;;0.45;;
74636;SDS011;63141;54.616;39.754;2022-09-02T12:22:25;1.00;;;0.60;;
74636;SDS011;63141;54.616;39.754;2022-09-02T12:25:33;0.55;;;0.40;;
74636;SDS011;63141;54.616;39.754;2022-09-02T12:28:41;1.35;;;0.80;;
74636;SDS011;63141;54.616;39.754;2022-09-02T12:31:46;0.82;;;0.45;;
74636;SDS011;63141;54.616;39.754;2022-09-02T12:34:51;5.22;;;0.50;;
74636;SDS011;63141;54.616;39.754;2022-09-02T12:37:54;1.25;;;0.50;;
74636;SDS011;63141;54.616;39.754;2022-09-02T12:44:16;1.58;;;0.60;;
74636;SDS011;63141;54.616;39.754;2022-09-02T12:47:34;1.10;;;0.52;;
74636;SDS011;63141;54.616;39.754;2022-09-02T12:50:56;1.08;;;0.52;;
74636;SDS011;63141;54.616;39.754;2022-09-02T12:53:58;1.13;;;0.35;;
74636;SDS011;63141;54.616;39.754;2022-09-02T12:57:01;1.50;;;0.50;;
74636;SDS011;63141;54.616;39.754;2022-09-02T13:00:06;2.30;;;0.40;;
74636;SDS011;63141;54.616;39.754;2022-09-02T13:03:20;0.85;;;0.55;;
74636;SDS011;63141;54.616;39.754;2022-09-02T13:06:33;0.93;;;0.47;;
74636;SDS011;63141;54.616;39.754;2022-09-02T13:34:13;0.75;;;0.40;;
74636;SDS011;63141;54.616;39.754;2022-09-02T13:40:35;0.40;;;0.20;;
74636;SDS011;63141;54.616;39.754;2022-09-02T13:43:38;0.77;;;0.50;;
74636;SDS011;63141;54.616;39.754;2022-09-02T13:46:43;1.27;;;0.30;;
74636;SDS011;63141;54.616;39.754;2022-09-02T13:49:50;1.20;;;0.30;;
74636;SDS011;63141;54.616;39.754;2022-09-02T13:52:54;0.20;;;0.20;;
74636;SDS011;63141;54.616;39.754;2022-09-02T13:56:07;1.92;;;0.35;;
74636;SDS011;63141;54.616;39.754;2022-09-02T13:59:11;0.55;;;0.20;;
74636;SDS011;63141;54.616;39.754;2022-09-02T14:02:28;0.50;;;0.30;;
74636;SDS011;63141;54.616;39.754;2022-09-02T14:05:32;0.60;;;0.20;;
74636;SDS011;63141;54.616;39.754;2022-09-02T14:08:38;1.17;;;0.22;;
74636;SDS011;63141;54.616;39.754;2022-09-02T14:11:40;1.05;;;0.30;;
74636;SDS011;63141;54.616;39.754;2022-09-02T14:14:44;0.95;;;0.35;;
74636;SDS011;63141;54.616;39.754;2022-09-02T14:17:45;0.60;;;0.30;;
74636;SDS011;63141;54.616;39.754;2022-09-02T14:24:20;1.65;;;0.50;;
74636;SDS011;63141;54.616;39.754;2022-09-02T14:27:23;1.60;;;0.55;;
74636;SDS011;63141;54.616;39.754;2022-09-02T14:30:30;0.90;;;0.40;;
74636;SDS011;63141;54.616;39.754;2022-09-02T14:36:44;1.23;;;0.40;;
74636;SDS011;63141;54.616;39.754;2022-09-02T14:43:02;2.53;;;0.50;;
74636;SDS011;63141;54.616;39.754;2022-09-02T14:46:05;1.02;;;0.50;;
74636;SDS011;63141;54.616;39.754;2022-09-02T14:49:08;0.95;;;0.40;;
74636;SDS011;63141;54.616;39.754;2022-09-02T14:58:47;1.83;;;0.43;;
74636;SDS011;63141;54.616;39.754;2022-09-02T15:01:49;0.68;;;0.40;;
74636;SDS011;63141;54.616;39.754;2022-09-02T15:04:59;1.55;;;0.50;;
74636;SDS011;63141;54.616;39.754;2022-09-02T15:11:03;0.63;;;0.40;;
74636;SDS011;63141;54.616;39.754;2022-09-02T15:14:05;1.17;;;0.50;;
74636;SDS011;63141;54.616;39.754;2022-09-02T15:17:14;1.00;;;0.57;;
74636;SDS011;63141;54.616;39.754;2022-09-02T15:20:15;1.55;;;0.50;;
74636;SDS011;63141;54.616;39.754;2022-09-02T15:23:17;1.02;;;0.30;;
74636;SDS011;63141;54.616;39.754;2022-09-02T15:26:18;0.35;;;0.30;;
74636;SDS011;63141;54.616;39.754;2022-09-02T15:29:20;2.20;;;0.40;;
74636;SDS011;63141;54.616;39.754;2022-09-02T15:32:24;2.35;;;0.30;;
74636;SDS011;63141;54.616;39.754;2022-09-02T15:35:26;0.47;;;0.38;;
74636;SDS011;63141;54.616;39.754;2022-09-02T15:38:27;2.15;;;0.43;;
74636;SDS011;63141;54.616;39.754;2022-09-02T15:41:29;1.13;;;0.40;;
74636;SDS011;63141;54.616;39.754;2022-09-02T15:44:34;2.22;;;0.40;;
74636;SDS011;63141;54.616;39.754;2022-09-02T15:47:36;1.60;;;0.45;;
74636;SDS011;63141;54.616;39.754;2022-09-02T15:50:38;0.30;;;0.30;;
74636;SDS011;63141;54.616;39.754;2022-09-02T15:53:40;1.45;;;0.50;;
74636;SDS011;63141;54.616;39.754;2022-09-02T15:56:42;0.77;;;0.45;;
74636;SDS011;63141;54.616;39.754;2022-09-02T15:59:45;0.82;;;0.40;;
74636;SDS011;63141;54.616;39.754;2022-09-02T16:02:46;14.02;;;1.27;;
74636;SDS011;63141;54.616;39.754;2022-09-02T16:05:59;100.18;;;46.38;;
74636;SDS011;63141;54.616;39.754;2022-09-02T16:09:02;27.08;;;3.20;;
74636;SDS011;63141;54.616;39.754;2022-09-02T16:12:03;83.97;;;17.73;;
74636;SDS011;63141;54.616;39.754;2022-09-02T16:15:06;153.07;;;50.80;;
74636;SDS011;63141;54.616;39.754;2022-09-02T16:18:08;105.90;;;27.95;;
74636;SDS011;63141;54.616;39.754;2022-09-02T16:21:09;127.90;;;31.30;;
74636;SDS011;63141;54.616;39.754;2022-09-02T16:24:12;177.85;;;49.65;;
74636;SDS011;63141;54.616;39.754;2022-09-02T16:27:14;151.13;;;45.15;;
74636;SDS011;63141;54.616;39.754;2022-09-02T16:30:35;157.30;;;42.97;;
74636;SDS011;63141;54.616;39.754;2022-09-02T16:33:36;149.15;;;42.33;;
74636;SDS011;63141;54.616;39.754;2022-09-02T16:36:39;149.45;;;42.17;;
74636;SDS011;63141;54.616;39.754;2022-09-02T16:39:42;142.02;;;41.22;;
74636;SDS011;63141;54.616;39.754;2022-09-02T16:42:43;145.13;;;41.97;;
74636;SDS011;63141;54.616;39.754;2022-09-02T16:45:45;129.63;;;40.10;;
74636;SDS011;63141;54.616;39.754;2022-09-02T16:48:47;137.98;;;41.33;;
74636;SDS011;63141;54.616;39.754;2022-09-02T16:51:49;135.02;;;39.58;;
74636;SDS011;63141;54.616;39.754;2022-09-02T16:54:51;128.50;;;38.45;;
74636;SDS011;63141;54.616;39.754;2022-09-02T16:57:52;126.28;;;38.03;;
74636;SDS011;63141;54.616;39.754;2022-09-02T17:00:54;134.65;;;38.40;;
74636;SDS011;63141;54.616;39.754;2022-09-02T17:04:01;121.78;;;36.00;;
74636;SDS011;63141;54.616;39.754;2022-09-02T17:07:03;122.20;;;36.00;;
74636;SDS011;63141;54.616;39.754;2022-09-02T17:10:05;125.53;;;35.47;;
74636;SDS011;63141;54.616;39.754;2022-09-02T17:13:06;118.30;;;35.60;;
74636;SDS011;63141;54.616;39.754;2022-09-02T17:16:08;117.28;;;35.70;;
74636;SDS011;63141;54.616;39.754;2022-09-02T17:19:09;100.95;;;33.25;;
74636;SDS011;63141;54.616;39.754;2022-09-02T17:22:14;113.07;;;33.33;;
74636;SDS011;63141;54.616;39.754;2022-09-02T17:25:15;101.18;;;32.20;;
74636;SDS011;63141;54.616;39.754;2022-09-02T17:28:17;110.95;;;32.00;;
74636;SDS011;63141;54.616;39.754;2022-09-02T17:31:29;112.50;;;33.22;;
74636;SDS011;63141;54.616;39.754;2022-09-02T17:34:32;97.47;;;30.50;;
74636;SDS011;63141;54.616;39.754;2022-09-02T17:37:33;106.78;;;31.00;;
74636;SDS011;63141;54.616;39.754;2022-09-02T17:40:37;98.45;;;31.10;;
74636;SDS011;63141;54.616;39.754;2022-09-02T17:43:57;104.47;;;31.35;;
74636;SDS011;63141;54.616;39.754;2022-09-02T17:46:59;92.30;;;28.20;;
74636;SDS011;63141;54.616;39.754;2022-09-02T17:50:01;92.82;;;28.95;;
74636;SDS011;63141;54.616;39.754;2022-09-02T17:53:02;91.65;;;28.98;;
74636;SDS011;63141;54.616;39.754;2022-09-02T18:06:31;79.22;;;27.10;;
74636;SDS011;63141;54.616;39.754;2022-09-02T18:09:39;80.20;;;24.67;;
74636;SDS011;63141;54.616;39.754;2022-09-02T18:12:41;78.70;;;24.65;;
74636;SDS011;63141;54.616;39.754;2022-09-02T18:19:25;75.95;;;24.67;;
74636;SDS011;63141;54.616;39.754;2022-09-02T18:26:04;77.50;;;25.75;;
74636;SDS011;63141;54.616;39.754;2022-09-02T18:42:54;82.32;;;25.05;;
74636;SDS011;63141;54.616;39.754;2022-09-02T18:46:00;65.40;;;21.33;;
74636;SDS011;63141;54.616;39.754;2022-09-02T18:49:02;63.00;;;21.80;;
74636;SDS011;63141;54.616;39.754;2022-09-02T18:52:07;67.55;;;22.27;;
74636;SDS011;63141;54.616;39.754;2022-09-02T18:55:11;58.72;;;20.60;;
74636;SDS011;63141;54.616;39.754;2022-09-02T19:01:47;56.47;;;19.25;;
74636;SDS011;63141;54.616;39.754;2022-09-02T19:04:56;66.30;;;20.92;;
74636;SDS011;63141;54.616;39.754;2022-09-02T19:08:05;63.47;;;19.88;;
74636;SDS011;63141;54.616;39.754;2022-09-02T19:11:27;56.67;;;20.38;;
74636;SDS011;63141;54.616;39.754;2022-09-02T19:14:36;55.25;;;19.38;;
74636;SDS011;63141;54.616;39.754;2022-09-02T19:17:40;54.45;;;19.17;;
74636;SDS011;63141;54.616;39.754;2022-09-02T19:20:41;50.85;;;18.02;;
74636;SDS011;63141;54.616;39.754;2022-09-02T19:23:43;56.38;;;18.05;;
74636;SDS011;63141;54.616;39.754;2022-09-02T19:26:46;50.75;;;18.17;;
74636;SDS011;63141;54.616;39.754;2022-09-02T19:30:07;55.30;;;18.40;;
74636;SDS011;63141;54.616;39.754;2022-09-02T19:33:12;53.58;;;17.30;;
74636;SDS011;63141;54.616;39.754;2022-09-02T19:36:15;44.65;;;16.38;;
74636;SDS011;63141;54.616;39.754;2022-09-02T19:39:18;47.30;;;17.25;;
74636;SDS011;63141;54.616;39.754;2022-09-02T19:42:20;46.92;;;16.05;;
74636;SDS011;63141;54.616;39.754;2022-09-02T19:45:21;54.60;;;17.20;;
74636;SDS011;63141;54.616;39.754;2022-09-02T19:48:23;50.28;;;16.70;;
74636;SDS011;63141;54.616;39.754;2022-09-02T19:51:24;48.88;;;16.45;;
74636;SDS011;63141;54.616;39.754;2022-09-02T19:54:26;45.85;;;15.68;;
74636;SDS011;63141;54.616;39.754;2022-09-02T19:57:29;47.63;;;15.50;;
74636;SDS011;63141;54.616;39.754;2022-09-02T20:00:33;48.47;;;16.08;;
74636;SDS011;63141;54.616;39.754;2022-09-02T20:03:36;42.72;;;15.60;;
74636;SDS011;63141;54.616;39.754;2022-09-02T20:06:40;63.88;;;27.27;;
74636;SDS011;63141;54.616;39.754;2022-09-02T20:09:41;42.42;;;13.93;;
74636;SDS011;63141;54.616;39.754;2022-09-02T20:12:43;39.15;;;14.40;;
74636;SDS011;63141;54.616;39.754;2022-09-02T20:15:44;43.22;;;15.63;;
74636;SDS011;63141;54.616;39.754;2022-09-02T20:18:46;46.17;;;15.07;;
74636;SDS011;63141;54.616;39.754;2022-09-02T20:21:49;222.13;;;161.43;;
74636;SDS011;63141;54.616;39.754;2022-09-02T20:24:50;39.42;;;15.20;;
74636;SDS011;63141;54.616;39.754;2022-09-02T20:31:00;173.23;;;85.43;;
74636;SDS011;63141;54.616;39.754;2022-09-02T20:47:15;33.42;;;12.80;;
74636;SDS011;63141;54.616;39.754;2022-09-02T20:58:01;42.10;;;16.17;;
74636;SDS011;63141;54.616;39.754;2022-09-02T21:01:23;230.57;;;170.05;;
74636;SDS011;63141;54.616;39.754;2022-09-02T21:04:36;141.38;;;100.95;;
74636;SDS011;63141;54.616;39.754;2022-09-02T21:07:48;35.22;;;14.88;;
74636;SDS011;63141;54.616;39.754;2022-09-02T21:10:58;118.47;;;73.25;;
74636;SDS011;63141;54.616;39.754;2022-09-02T21:14:06;28.65;;;11.10;;
74636;SDS011;63141;54.616;39.754;2022-09-02T21:17:14;30.58;;;10.70;;